createdAt,value
2019-03-24T00:00:10.978Z,1023.55
2019-03-24T00:01:10.952Z,1023.54
2019-03-24T00:02:10.935Z,1023.52
2019-03-24T00:03:10.913Z,1023.54
2019-03-24T00:04:10.899Z,1023.53
2019-03-24T00:05:10.886Z,1023.57
2019-03-24T00:06:10.856Z,1023.59
2019-03-24T00:07:10.833Z,1023.55
2019-03-24T00:08:10.863Z,1023.58
2019-03-24T00:09:10.800Z,1023.59
2019-03-24T00:10:10.776Z,1023.57
2019-03-24T00:11:10.760Z,1023.56
2019-03-24T00:12:10.749Z,1023.55
2019-03-24T00:13:10.724Z,1023.53
2019-03-24T00:14:10.697Z,1023.49
2019-03-24T00:15:10.684Z,1023.50
2019-03-24T00:16:10.660Z,1023.47
2019-03-24T00:17:10.638Z,1023.48
2019-03-24T00:18:10.624Z,1023.48
2019-03-24T00:19:10.604Z,1023.50
2019-03-24T00:20:10.585Z,1023.51
2019-03-24T00:21:10.558Z,1023.50
2019-03-24T00:22:10.541Z,1023.46
2019-03-24T00:23:10.519Z,1023.49
2019-03-24T00:24:10.499Z,1023.48
2019-03-24T00:25:10.478Z,1023.44
2019-03-24T00:26:10.459Z,1023.47
2019-03-24T00:27:10.439Z,1023.46
2019-03-24T00:28:10.427Z,1023.48
2019-03-24T00:29:10.400Z,1023.50
2019-03-24T00:30:10.381Z,1023.55
2019-03-24T00:31:10.366Z,1023.51
2019-03-24T00:32:10.345Z,1023.52
2019-03-24T00:33:10.331Z,1023.55
2019-03-24T00:34:10.301Z,1023.51
2019-03-24T00:35:10.283Z,1023.51
2019-03-24T00:36:10.261Z,1023.49
2019-03-24T00:37:10.241Z,1023.51
2019-03-24T00:38:10.221Z,1023.48
2019-03-24T00:39:10.204Z,1023.51
2019-03-24T00:40:10.185Z,1023.50
2019-03-24T00:41:10.166Z,1023.52
2019-03-24T00:42:10.144Z,1023.54
2019-03-24T00:43:10.126Z,1023.54
2019-03-24T00:44:10.108Z,1023.53
2019-03-24T00:45:10.087Z,1023.54
2019-03-24T00:46:10.064Z,1023.52
2019-03-24T00:47:10.041Z,1023.53
2019-03-24T00:48:10.032Z,1023.54
2019-03-24T00:49:10.016Z,1023.55
2019-03-24T00:50:09.997Z,1023.61
2019-03-24T00:51:09.969Z,1023.59
2019-03-24T00:52:09.946Z,1023.60
2019-03-24T00:53:09.926Z,1023.58
2019-03-24T00:54:09.909Z,1023.55
2019-03-24T00:55:09.909Z,1023.54
2019-03-24T00:56:09.873Z,1023.51
2019-03-24T00:57:09.851Z,1023.50
2019-03-24T00:58:09.831Z,1023.48
2019-03-24T00:59:09.808Z,1023.47
2019-03-24T01:00:09.789Z,1023.48
2019-03-24T01:01:09.769Z,1023.44
2019-03-24T01:02:09.745Z,1023.43
2019-03-24T01:03:09.730Z,1023.45
2019-03-24T01:04:09.706Z,1023.39
2019-03-24T01:05:09.689Z,1023.38
2019-03-24T01:06:09.672Z,1023.42
2019-03-24T01:07:09.659Z,1023.43
2019-03-24T01:08:09.625Z,1023.42
2019-03-24T01:09:09.606Z,1023.40
2019-03-24T01:10:09.591Z,1023.39
2019-03-24T01:11:09.568Z,1023.37
2019-03-24T01:12:09.548Z,1023.37
2019-03-24T01:13:09.529Z,1023.37
2019-03-24T01:14:09.506Z,1023.32
2019-03-24T01:15:09.489Z,1023.33
2019-03-24T01:16:09.468Z,1023.31
2019-03-24T01:17:09.452Z,1023.31
2019-03-24T01:18:09.430Z,1023.29
2019-03-24T01:19:09.409Z,1023.27
2019-03-24T01:20:09.388Z,1023.23
2019-03-24T01:21:09.369Z,1023.28
2019-03-24T01:22:09.345Z,1023.29
2019-03-24T01:23:09.328Z,1023.30
2019-03-24T01:24:09.306Z,1023.30
2019-03-24T01:25:09.289Z,1023.27
2019-03-24T01:26:09.272Z,1023.27
2019-03-24T01:27:09.248Z,1023.26
2019-03-24T01:28:09.230Z,1023.26
2019-03-24T01:29:09.208Z,1023.28
2019-03-24T01:30:09.197Z,1023.27
2019-03-24T01:31:09.166Z,1023.29
2019-03-24T01:32:09.147Z,1023.31
2019-03-24T01:33:09.132Z,1023.29
2019-03-24T01:34:09.112Z,1023.31
2019-03-24T01:35:09.090Z,1023.32
2019-03-24T01:36:09.077Z,1023.33
2019-03-24T01:37:09.048Z,1023.31
2019-03-24T01:38:09.033Z,1023.30
2019-03-24T01:39:09.008Z,1023.29
2019-03-24T01:40:08.992Z,1023.31
2019-03-24T01:41:08.971Z,1023.27
2019-03-24T01:42:08.949Z,1023.26
2019-03-24T01:43:08.929Z,1023.22
2019-03-24T01:44:08.910Z,1023.26
2019-03-24T01:45:08.888Z,1023.20
2019-03-24T01:46:08.871Z,1023.19
2019-03-24T01:47:08.850Z,1023.20
2019-03-24T01:48:08.830Z,1023.20
2019-03-24T01:49:08.809Z,1023.24
2019-03-24T01:50:08.793Z,1023.22
2019-03-24T01:51:08.772Z,1023.21
2019-03-24T01:52:08.753Z,1023.18
2019-03-24T01:53:08.729Z,1023.19
2019-03-24T01:54:08.714Z,1023.15
2019-03-24T01:55:08.696Z,1023.15
2019-03-24T01:56:08.669Z,1023.16
2019-03-24T01:57:08.655Z,1023.11
2019-03-24T01:58:08.645Z,1023.12
2019-03-24T01:59:08.608Z,1023.12
2019-03-24T02:00:08.587Z,1023.13
2019-03-24T02:01:08.572Z,1023.08
2019-03-24T02:02:08.552Z,1023.10
2019-03-24T02:03:08.529Z,1023.10
2019-03-24T02:04:08.510Z,1023.10
2019-03-24T02:05:08.489Z,1023.08
2019-03-24T02:06:08.469Z,1023.14
2019-03-24T02:07:08.450Z,1023.06
2019-03-24T02:08:08.427Z,1023.07
2019-03-24T02:09:08.411Z,1023.02
2019-03-24T02:10:08.390Z,1023.00
2019-03-24T02:11:08.366Z,1022.99
2019-03-24T02:12:08.350Z,1022.98
2019-03-24T02:13:08.327Z,1022.96
2019-03-24T02:14:08.310Z,1022.95
2019-03-24T02:15:08.289Z,1022.96
2019-03-24T02:16:09.659Z,1022.94
2019-03-24T02:17:08.248Z,1022.93
2019-03-24T02:18:08.239Z,1022.93
2019-03-24T02:19:08.206Z,1022.95
2019-03-24T02:20:08.188Z,1022.93
2019-03-24T02:21:08.165Z,1022.94
2019-03-24T02:22:08.154Z,1022.95
2019-03-24T02:23:08.128Z,1022.90
2019-03-24T02:24:08.106Z,1022.94
2019-03-24T02:25:08.087Z,1022.92
2019-03-24T02:26:08.068Z,1022.90
2019-03-24T02:27:08.044Z,1022.89
2019-03-24T02:28:08.028Z,1022.87
2019-03-24T02:29:08.012Z,1022.87
2019-03-24T02:30:07.984Z,1022.82
2019-03-24T02:31:07.965Z,1022.86
2019-03-24T02:32:07.944Z,1022.80
2019-03-24T02:33:07.923Z,1022.77
2019-03-24T02:34:07.910Z,1022.84
2019-03-24T02:35:07.890Z,1022.78
2019-03-24T02:36:07.871Z,1022.83
2019-03-24T02:37:07.842Z,1022.81
2019-03-24T02:38:07.828Z,1022.82
2019-03-24T02:39:07.809Z,1022.80
2019-03-24T02:40:07.791Z,1022.79
2019-03-24T02:41:07.762Z,1022.80
2019-03-24T02:42:07.741Z,1022.78
2019-03-24T02:43:07.742Z,1022.80
2019-03-24T02:44:07.702Z,1022.76
2019-03-24T02:45:07.685Z,1022.79
2019-03-24T02:46:07.670Z,1022.79
2019-03-24T02:47:07.641Z,1022.82
2019-03-24T02:48:07.622Z,1022.78
2019-03-24T02:49:07.607Z,1022.75
2019-03-24T02:50:07.587Z,1022.77
2019-03-24T02:51:07.559Z,1022.70
2019-03-24T02:52:07.539Z,1022.73
2019-03-24T02:53:07.514Z,1022.70
2019-03-24T02:54:07.501Z,1022.71
2019-03-24T02:55:07.491Z,1022.71
2019-03-24T02:56:07.462Z,1022.68
2019-03-24T02:57:07.442Z,1022.70
2019-03-24T02:58:07.420Z,1022.71
2019-03-24T02:59:07.405Z,1022.70
2019-03-24T03:00:07.372Z,1022.69
2019-03-24T03:01:07.352Z,1022.67
2019-03-24T03:02:07.332Z,1022.63
2019-03-24T03:03:07.316Z,1022.62
2019-03-24T03:04:07.296Z,1022.62
2019-03-24T03:05:07.272Z,1022.60
2019-03-24T03:06:07.252Z,1022.60
2019-03-24T03:07:07.232Z,1022.60
2019-03-24T03:08:07.207Z,1022.56
2019-03-24T03:09:07.194Z,1022.54
2019-03-24T03:10:07.166Z,1022.58
2019-03-24T03:11:07.146Z,1022.59
2019-03-24T03:12:07.125Z,1022.57
2019-03-24T03:13:07.105Z,1022.56
2019-03-24T03:14:07.093Z,1022.55
2019-03-24T03:15:07.071Z,1022.56
2019-03-24T03:16:07.049Z,1022.57
2019-03-24T03:17:07.026Z,1022.57
2019-03-24T03:18:07.004Z,1022.56
2019-03-24T03:19:06.984Z,1022.59
2019-03-24T03:20:06.962Z,1022.52
2019-03-24T03:21:06.940Z,1022.51
2019-03-24T03:22:06.918Z,1022.56
2019-03-24T03:23:06.933Z,1022.52
2019-03-24T03:24:06.884Z,1022.52
2019-03-24T03:25:06.873Z,1022.60
2019-03-24T03:26:06.842Z,1022.56
2019-03-24T03:27:06.820Z,1022.56
2019-03-24T03:28:06.796Z,1022.54
2019-03-24T03:29:06.777Z,1022.55
2019-03-24T03:30:06.763Z,1022.58
2019-03-24T03:31:06.748Z,1022.58
2019-03-24T03:32:06.723Z,1022.55
2019-03-24T03:33:06.706Z,1022.56
2019-03-24T03:34:06.682Z,1022.60
2019-03-24T03:35:06.660Z,1022.58
2019-03-24T03:36:06.635Z,1022.54
2019-03-24T03:37:06.620Z,1022.51
2019-03-24T03:38:06.593Z,1022.51
2019-03-24T03:39:06.576Z,1022.47
2019-03-24T03:40:06.552Z,1022.50
2019-03-24T03:41:06.529Z,1022.48
2019-03-24T03:42:06.506Z,1022.45
2019-03-24T03:43:06.489Z,1022.43
2019-03-24T03:44:06.467Z,1022.40
2019-03-24T03:45:06.448Z,1022.39
2019-03-24T03:46:06.424Z,1022.38
2019-03-24T03:47:06.406Z,1022.39
2019-03-24T03:48:06.398Z,1022.40
2019-03-24T03:49:06.363Z,1022.40
2019-03-24T03:50:06.344Z,1022.39
2019-03-24T03:51:06.323Z,1022.37
2019-03-24T03:52:06.305Z,1022.38
2019-03-24T03:53:06.278Z,1022.34
2019-03-24T03:54:06.260Z,1022.33
2019-03-24T03:55:06.239Z,1022.39
2019-03-24T03:56:06.216Z,1022.34
2019-03-24T03:57:06.200Z,1022.37
2019-03-24T03:58:06.175Z,1022.31
2019-03-24T03:59:06.156Z,1022.31
2019-03-24T04:00:06.134Z,1022.35
2019-03-24T04:01:06.111Z,1022.33
2019-03-24T04:02:06.092Z,1022.35
2019-03-24T04:03:06.090Z,1022.33
2019-03-24T04:04:06.051Z,1022.28
2019-03-24T04:05:06.028Z,1022.27
2019-03-24T04:06:06.019Z,1022.25
2019-03-24T04:07:05.986Z,1022.21
2019-03-24T04:08:05.972Z,1022.23
2019-03-24T04:09:05.944Z,1022.25
2019-03-24T04:10:05.923Z,1022.27
2019-03-24T04:11:05.905Z,1022.29
2019-03-24T04:12:05.883Z,1022.31
2019-03-24T04:13:05.876Z,1022.25
2019-03-24T04:14:05.844Z,1022.22
2019-03-24T04:15:05.826Z,1022.24
2019-03-24T04:16:05.802Z,1022.23
2019-03-24T04:17:07.846Z,1022.18
2019-03-24T04:18:05.863Z,1022.18
2019-03-24T04:19:05.739Z,1022.19
2019-03-24T04:20:05.715Z,1022.20
2019-03-24T04:21:05.698Z,1022.16
2019-03-24T04:22:05.678Z,1022.17
2019-03-24T04:23:05.661Z,1022.14
2019-03-24T04:24:05.638Z,1022.13
2019-03-24T04:25:05.709Z,1022.14
2019-03-24T04:26:05.599Z,1022.14
2019-03-24T04:27:05.580Z,1022.15
2019-03-24T04:28:05.556Z,1022.16
2019-03-24T04:29:05.539Z,1022.16
2019-03-24T04:30:05.515Z,1022.15
2019-03-24T04:31:05.487Z,1022.17
2019-03-24T04:32:05.479Z,1022.16
2019-03-24T04:33:05.456Z,1022.18
2019-03-24T04:34:05.422Z,1022.19
2019-03-24T04:35:05.402Z,1022.20
2019-03-24T04:36:05.387Z,1022.17
2019-03-24T04:37:05.367Z,1022.18
2019-03-24T04:38:05.343Z,1022.22
2019-03-24T04:39:05.329Z,1022.23
2019-03-24T04:40:05.308Z,1022.22
2019-03-24T04:41:05.285Z,1022.26
2019-03-24T04:42:05.262Z,1022.23
2019-03-24T04:43:05.241Z,1022.23
2019-03-24T04:44:05.215Z,1022.14
2019-03-24T04:45:05.192Z,1022.20
2019-03-24T04:46:05.174Z,1022.18
2019-03-24T04:47:05.156Z,1022.20
2019-03-24T04:48:05.138Z,1022.19
2019-03-24T04:49:05.110Z,1022.18
2019-03-24T04:50:05.090Z,1022.14
2019-03-24T04:51:05.073Z,1022.17
2019-03-24T04:52:05.050Z,1022.17
2019-03-24T04:53:05.027Z,1022.19
2019-03-24T04:54:05.005Z,1022.17
2019-03-24T04:55:04.986Z,1022.19
2019-03-24T04:56:04.963Z,1022.19
2019-03-24T04:57:04.937Z,1022.22
2019-03-24T04:58:04.930Z,1022.18
2019-03-24T04:59:04.908Z,1022.19
2019-03-24T05:00:04.892Z,1022.21
2019-03-24T05:01:04.857Z,1022.20
2019-03-24T05:02:04.837Z,1022.17
2019-03-24T05:03:04.813Z,1022.18
2019-03-24T05:04:04.803Z,1022.13
2019-03-24T05:05:04.773Z,1022.15
2019-03-24T05:06:04.756Z,1022.12
2019-03-24T05:07:04.731Z,1022.12
2019-03-24T05:08:04.718Z,1022.10
2019-03-24T05:09:04.687Z,1022.09
2019-03-24T05:10:04.666Z,1022.10
2019-03-24T05:11:04.650Z,1022.06
2019-03-24T05:12:04.624Z,1022.09
2019-03-24T05:13:04.610Z,1022.11
2019-03-24T05:14:04.583Z,1022.08
2019-03-24T05:15:04.563Z,1022.12
2019-03-24T05:16:04.546Z,1022.16
2019-03-24T05:17:04.514Z,1022.16
2019-03-24T05:18:04.493Z,1022.16
2019-03-24T05:19:04.475Z,1022.18
2019-03-24T05:20:04.451Z,1022.17
2019-03-24T05:21:04.437Z,1022.17
2019-03-24T05:22:04.409Z,1022.15
2019-03-24T05:23:04.398Z,1022.19
2019-03-24T05:24:04.378Z,1022.16
2019-03-24T05:25:04.353Z,1022.16
2019-03-24T05:26:04.332Z,1022.20
2019-03-24T05:27:04.310Z,1022.17
2019-03-24T05:28:04.286Z,1022.17
2019-03-24T05:29:04.265Z,1022.14
2019-03-24T05:30:04.239Z,1022.16
2019-03-24T05:31:04.224Z,1022.16
2019-03-24T05:32:04.198Z,1022.15
2019-03-24T05:33:04.179Z,1022.15
2019-03-24T05:34:04.154Z,1022.16
2019-03-24T05:35:05.813Z,1022.10
2019-03-24T05:36:04.113Z,1022.09
2019-03-24T05:37:04.091Z,1022.09
2019-03-24T05:38:04.072Z,1022.09
2019-03-24T05:39:04.050Z,1022.11
2019-03-24T05:40:04.031Z,1022.09
2019-03-24T05:41:04.006Z,1022.08
2019-03-24T05:42:03.986Z,1022.09
2019-03-24T05:43:03.964Z,1022.10
2019-03-24T05:44:03.945Z,1022.13
2019-03-24T05:45:03.927Z,1022.10
2019-03-24T05:46:03.904Z,1022.10
2019-03-24T05:47:03.883Z,1022.10
2019-03-24T05:48:03.857Z,1022.11
2019-03-24T05:49:03.880Z,1022.09
2019-03-24T05:50:03.821Z,1022.09
2019-03-24T05:51:03.798Z,1022.11
2019-03-24T05:52:03.780Z,1022.07
2019-03-24T05:53:03.750Z,1022.06
2019-03-24T05:54:03.741Z,1022.02
2019-03-24T05:55:03.711Z,1022.04
2019-03-24T05:56:03.701Z,1022.02
2019-03-24T05:57:03.671Z,1022.02
2019-03-24T05:58:03.646Z,1021.98
2019-03-24T05:59:03.628Z,1021.98
2019-03-24T06:00:03.611Z,1022.01
2019-03-24T06:01:03.581Z,1021.95
2019-03-24T06:02:03.562Z,1021.96
2019-03-24T06:03:03.546Z,1021.95
2019-03-24T06:04:03.521Z,1021.97
2019-03-24T06:05:03.499Z,1021.93
2019-03-24T06:06:03.477Z,1021.93
2019-03-24T06:07:03.458Z,1021.92
2019-03-24T06:08:03.436Z,1021.86
2019-03-24T06:09:03.412Z,1021.83
2019-03-24T06:10:03.410Z,1021.78
2019-03-24T06:11:03.376Z,1021.76
2019-03-24T06:12:03.353Z,1021.74
2019-03-24T06:13:03.330Z,1021.74
2019-03-24T06:14:03.309Z,1021.71
2019-03-24T06:15:03.290Z,1021.74
2019-03-24T06:16:03.266Z,1021.73
2019-03-24T06:17:03.245Z,1021.76
2019-03-24T06:18:03.232Z,1021.76
2019-03-24T06:19:03.206Z,1021.75
2019-03-24T06:20:03.192Z,1021.74
2019-03-24T06:21:03.161Z,1021.73
2019-03-24T06:22:03.139Z,1021.78
2019-03-24T06:23:03.126Z,1021.73
2019-03-24T06:24:03.102Z,1021.77
2019-03-24T06:25:03.082Z,1021.76
2019-03-24T06:26:03.066Z,1021.75
2019-03-24T06:27:03.037Z,1021.75
2019-03-24T06:28:03.018Z,1021.74
2019-03-24T06:29:02.995Z,1021.76
2019-03-24T06:30:02.982Z,1021.76
2019-03-24T06:31:02.956Z,1021.75
2019-03-24T06:32:02.952Z,1021.72
2019-03-24T06:33:02.914Z,1021.77
2019-03-24T06:34:02.900Z,1021.78
2019-03-24T06:35:02.873Z,1021.78
2019-03-24T06:36:02.853Z,1021.79
2019-03-24T06:37:02.833Z,1021.76
2019-03-24T06:38:02.814Z,1021.74
2019-03-24T06:39:02.799Z,1021.68
2019-03-24T06:40:02.774Z,1021.71
2019-03-24T06:41:02.751Z,1021.71
2019-03-24T06:42:02.731Z,1021.73
2019-03-24T06:43:02.714Z,1021.69
2019-03-24T06:44:02.694Z,1021.66
2019-03-24T06:45:02.673Z,1021.65
2019-03-24T06:46:02.659Z,1021.64
2019-03-24T06:47:02.632Z,1021.61
2019-03-24T06:48:02.613Z,1021.61
2019-03-24T06:49:02.600Z,1021.58
2019-03-24T06:50:02.582Z,1021.60
2019-03-24T06:51:02.551Z,1021.59
2019-03-24T06:52:02.529Z,1021.61
2019-03-24T06:53:02.509Z,1021.59
2019-03-24T06:54:02.488Z,1021.57
2019-03-24T06:55:02.471Z,1021.58
2019-03-24T06:56:02.456Z,1021.60
2019-03-24T06:57:02.430Z,1021.62
2019-03-24T06:58:02.418Z,1021.66
2019-03-24T06:59:02.394Z,1021.61
2019-03-24T07:00:02.376Z,1021.67
2019-03-24T07:01:02.354Z,1021.65
2019-03-24T07:02:02.338Z,1021.70
2019-03-24T07:03:02.321Z,1021.80
2019-03-24T07:04:02.303Z,1021.89
2019-03-24T07:05:02.285Z,1021.79
2019-03-24T07:06:02.271Z,1021.92
2019-03-24T07:07:02.251Z,1021.98
2019-03-24T07:08:02.251Z,1021.92
2019-03-24T07:09:02.246Z,1022.04
2019-03-24T07:10:02.207Z,1022.03
2019-03-24T07:11:02.191Z,1021.90
2019-03-24T07:12:02.180Z,1021.98
2019-03-24T07:13:02.158Z,1021.98
2019-03-24T07:14:02.145Z,1021.99
2019-03-24T07:15:02.129Z,1021.87
2019-03-24T07:16:02.115Z,1021.92
2019-03-24T07:17:02.099Z,1021.95
2019-03-24T07:18:08.438Z,1022.14
2019-03-24T07:19:02.079Z,1021.95
2019-03-24T07:20:02.059Z,1021.87
2019-03-24T07:21:02.053Z,1021.91
2019-03-24T07:22:02.033Z,1022.03
2019-03-24T07:23:02.023Z,1022.30
2019-03-24T07:24:02.023Z,1021.93
2019-03-24T07:25:02.002Z,1022.01
2019-03-24T07:26:01.975Z,1022.00
2019-03-24T07:27:01.972Z,1021.93
2019-03-24T07:28:01.952Z,1021.94
2019-03-24T07:29:01.935Z,1021.95
2019-03-24T07:30:01.930Z,1021.98
2019-03-24T07:31:01.907Z,1022.19
2019-03-24T07:32:01.895Z,1022.04
2019-03-24T07:33:01.886Z,1022.27
2019-03-24T07:34:01.873Z,1022.26
2019-03-24T07:35:01.873Z,1022.34
2019-03-24T07:36:01.847Z,1022.41
2019-03-24T07:37:01.837Z,1022.47
2019-03-24T07:38:01.832Z,1022.20
2019-03-24T07:39:01.812Z,1022.37
2019-03-24T07:40:01.808Z,1022.40
2019-03-24T07:41:01.792Z,1022.12
2019-03-24T07:42:01.788Z,1022.32
2019-03-24T07:43:01.785Z,1022.49
2019-03-24T07:44:01.771Z,1022.19
2019-03-24T07:45:01.753Z,1022.24
2019-03-24T07:46:01.744Z,1022.21
2019-03-24T07:47:01.735Z,1022.28
2019-03-24T07:48:01.730Z,1022.23
2019-03-24T07:49:01.717Z,1022.35
2019-03-24T07:50:01.702Z,1022.25
2019-03-24T07:51:01.705Z,1022.26
2019-03-24T07:52:01.695Z,1022.12
2019-03-24T07:53:01.678Z,1022.12
2019-03-24T07:54:01.658Z,1022.12
2019-03-24T07:55:01.648Z,1022.19
2019-03-24T07:56:01.645Z,1022.20
2019-03-24T07:57:01.625Z,1022.22
2019-03-24T07:58:01.639Z,1022.29
2019-03-24T07:59:01.612Z,1022.16
2019-03-24T08:00:01.594Z,1022.16
2019-03-24T08:01:01.585Z,1022.19
2019-03-24T08:02:01.572Z,1022.17
2019-03-24T08:03:01.562Z,1022.16
2019-03-24T08:04:01.544Z,1022.20
2019-03-24T08:05:01.526Z,1022.05
2019-03-24T08:06:01.521Z,1022.18
2019-03-24T08:07:01.501Z,1022.18
2019-03-24T08:08:01.489Z,1022.56
2019-03-24T08:09:01.479Z,1022.64
2019-03-24T08:10:01.474Z,1022.23
2019-03-24T08:11:01.449Z,1022.46
2019-03-24T08:12:01.440Z,1022.20
2019-03-24T08:13:01.424Z,1022.11
2019-03-24T08:14:01.420Z,1022.13
2019-03-24T08:15:01.406Z,1022.12
2019-03-24T08:16:01.389Z,1022.11
2019-03-24T08:17:01.376Z,1022.10
2019-03-24T08:18:01.378Z,1022.16
2019-03-24T08:19:01.360Z,1022.04
2019-03-24T08:20:01.333Z,1022.23
2019-03-24T08:21:01.314Z,1022.06
2019-03-24T08:22:01.305Z,1022.02
2019-03-24T08:23:01.289Z,1021.96
2019-03-24T08:24:01.279Z,1022.20
2019-03-24T08:25:01.263Z,1022.45
2019-03-24T08:26:01.246Z,1022.61
2019-03-24T08:27:01.242Z,1022.63
2019-03-24T08:28:01.225Z,1022.68
2019-03-24T08:29:01.211Z,1022.64
2019-03-24T08:30:01.203Z,1022.61
2019-03-24T08:31:01.216Z,1022.60
2019-03-24T08:32:01.186Z,1022.54
2019-03-24T08:33:01.184Z,1022.56
2019-03-24T08:34:01.164Z,1022.62
2019-03-24T08:35:01.159Z,1022.64
2019-03-24T08:36:01.153Z,1022.66
2019-03-24T08:37:01.141Z,1022.61
2019-03-24T08:38:01.142Z,1022.60
2019-03-24T08:39:01.127Z,1022.57
2019-03-24T08:40:01.132Z,1022.59
2019-03-24T08:41:01.119Z,1022.60
2019-03-24T08:42:01.113Z,1022.69
2019-03-24T08:43:01.118Z,1022.64
2019-03-24T08:44:01.100Z,1022.67
2019-03-24T08:45:01.163Z,1022.70
2019-03-24T08:46:01.091Z,1022.61
2019-03-24T08:47:01.096Z,1022.63
2019-03-24T08:48:01.125Z,1022.66
2019-03-24T08:49:01.098Z,1022.68
2019-03-24T08:50:01.083Z,1022.48
2019-03-24T08:51:01.072Z,1022.68
2019-03-24T08:52:01.071Z,1022.67
2019-03-24T08:53:01.069Z,1022.66
2019-03-24T08:54:01.066Z,1022.66
2019-03-24T08:55:01.080Z,1022.65
2019-03-24T08:56:01.068Z,1022.69
2019-03-24T08:57:01.061Z,1022.71
2019-03-24T08:58:01.056Z,1022.68
2019-03-24T08:59:01.058Z,1022.74
2019-03-24T09:00:01.052Z,1022.76
2019-03-24T09:01:01.051Z,1022.70
2019-03-24T09:02:01.049Z,1022.72
2019-03-24T09:03:01.045Z,1022.79
2019-03-24T09:04:01.117Z,1022.79
2019-03-24T09:05:01.104Z,1022.69
2019-03-24T09:06:01.041Z,1022.80
2019-03-24T09:07:01.038Z,1022.66
2019-03-24T09:08:01.039Z,1022.55
2019-03-24T09:09:01.033Z,1022.65
2019-03-24T09:10:01.033Z,1022.77
2019-03-24T09:11:01.024Z,1022.64
2019-03-24T09:12:01.031Z,1022.80
2019-03-24T09:13:01.022Z,1022.69
2019-03-24T09:14:01.017Z,1022.63
2019-03-24T09:15:01.014Z,1022.66
2019-03-24T09:16:01.015Z,1022.57
2019-03-24T09:17:01.008Z,1022.57
2019-03-24T09:18:01.002Z,1022.56
2019-03-24T09:19:01.003Z,1022.48
2019-03-24T09:20:01.005Z,1022.45
2019-03-24T09:21:01.001Z,1022.28
2019-03-24T09:22:00.999Z,1022.24
2019-03-24T09:23:00.999Z,1022.22
2019-03-24T09:24:00.993Z,1022.34
2019-03-24T09:25:00.993Z,1022.34
2019-03-24T09:26:00.977Z,1022.33
2019-03-24T09:27:00.978Z,1022.22
2019-03-24T09:28:00.977Z,1022.32
2019-03-24T09:29:00.971Z,1022.47
2019-03-24T09:30:00.964Z,1022.40
2019-03-24T09:31:00.956Z,1022.45
2019-03-24T09:32:00.955Z,1022.39
2019-03-24T09:33:00.957Z,1022.39
2019-03-24T09:34:00.950Z,1022.35
2019-03-24T09:35:00.946Z,1022.32
2019-03-24T09:36:00.935Z,1022.29
2019-03-24T09:37:00.934Z,1022.33
2019-03-24T09:38:00.927Z,1022.32
2019-03-24T09:39:00.934Z,1022.28
2019-03-24T09:40:00.921Z,1022.26
2019-03-24T09:41:00.913Z,1022.11
2019-03-24T09:42:00.906Z,1022.06
2019-03-24T09:43:00.919Z,1022.06
2019-03-24T09:44:00.898Z,1022.01
2019-03-24T09:45:00.887Z,1021.80
2019-03-24T09:46:00.884Z,1021.74
2019-03-24T09:47:00.878Z,1021.69
2019-03-24T09:48:00.872Z,1021.70
2019-03-24T09:49:03.332Z,1021.66
2019-03-24T09:50:00.863Z,1021.62
2019-03-24T09:51:00.858Z,1021.63
2019-03-24T09:52:00.854Z,1021.54
2019-03-24T09:53:00.838Z,1021.58
2019-03-24T09:54:00.834Z,1021.58
2019-03-24T09:55:00.834Z,1021.63
2019-03-24T09:56:00.829Z,1021.61
2019-03-24T09:57:00.819Z,1021.65
2019-03-24T09:58:00.810Z,1021.63
2019-03-24T09:59:00.812Z,1021.65
2019-03-24T10:00:00.798Z,1021.64
2019-03-24T10:01:00.792Z,1021.66
2019-03-24T10:02:00.781Z,1021.68
2019-03-24T10:03:00.791Z,1021.68
2019-03-24T10:04:00.766Z,1021.68
2019-03-24T10:05:00.758Z,1021.67
2019-03-24T10:06:00.803Z,1021.67
2019-03-24T10:07:00.740Z,1021.64
2019-03-24T10:08:00.741Z,1021.59
2019-03-24T10:09:00.726Z,1021.59
2019-03-24T10:10:00.723Z,1021.62
2019-03-24T10:11:00.710Z,1021.59
2019-03-24T10:12:00.706Z,1021.60
2019-03-24T10:13:00.694Z,1021.58
2019-03-24T10:14:00.691Z,1021.53
2019-03-24T10:15:00.678Z,1021.54
2019-03-24T10:16:00.671Z,1021.53
2019-03-24T10:17:00.662Z,1021.45
2019-03-24T10:18:00.653Z,1021.39
2019-03-24T10:19:00.647Z,1021.34
2019-03-24T10:20:00.637Z,1021.28
2019-03-24T10:21:00.628Z,1021.22
2019-03-24T10:23:00.608Z,1021.19
2019-03-24T10:24:00.609Z,1021.15
2019-03-24T10:25:00.600Z,1021.08
2019-03-24T10:26:00.582Z,1021.15
2019-03-24T10:27:00.576Z,1021.10
2019-03-24T10:28:00.569Z,1021.12
2019-03-24T10:29:00.558Z,1021.10
2019-03-24T10:30:00.562Z,1021.03
2019-03-24T10:31:00.538Z,1021.05
2019-03-24T10:32:00.534Z,1021.02
2019-03-24T10:33:00.515Z,1021.04
2019-03-24T10:34:00.515Z,1021.01
2019-03-24T10:35:00.498Z,1021.00
2019-03-24T10:36:00.490Z,1020.99
2019-03-24T10:37:00.488Z,1020.98
2019-03-24T10:38:00.476Z,1020.98
2019-03-24T10:39:00.459Z,1021.03
2019-03-24T10:40:00.458Z,1021.00
2019-03-24T10:41:00.441Z,1020.97
2019-03-24T10:42:00.431Z,1020.99
2019-03-24T10:43:00.421Z,1020.99
2019-03-24T10:44:00.410Z,1020.94
2019-03-24T10:45:00.406Z,1020.90
2019-03-24T10:46:00.397Z,1020.84
2019-03-24T10:47:00.389Z,1020.87
2019-03-24T10:48:00.379Z,1020.83
2019-03-24T10:49:00.365Z,1020.78
2019-03-24T10:50:00.376Z,1020.78
2019-03-24T10:51:00.349Z,1020.71
2019-03-24T10:52:00.346Z,1020.71
2019-03-24T10:53:00.329Z,1020.72
2019-03-24T10:54:00.321Z,1020.75
2019-03-24T10:55:00.322Z,1020.75
2019-03-24T10:56:00.306Z,1020.74
2019-03-24T10:57:00.290Z,1020.76
2019-03-24T10:58:00.284Z,1020.76
2019-03-24T10:59:00.272Z,1020.76
2019-03-24T11:00:00.354Z,1020.74
2019-03-24T11:01:00.258Z,1020.71
2019-03-24T11:02:00.244Z,1020.73
2019-03-24T11:03:00.233Z,1020.68
2019-03-24T11:04:00.224Z,1020.69
2019-03-24T11:05:00.331Z,1020.69
2019-03-24T11:06:00.204Z,1020.66
2019-03-24T11:07:00.191Z,1020.65
2019-03-24T11:08:00.200Z,1020.66
2019-03-24T11:09:00.170Z,1020.60
2019-03-24T11:10:00.330Z,1020.59
2019-03-24T11:11:00.149Z,1020.63
2019-03-24T11:12:00.137Z,1020.63
2019-03-24T11:13:00.128Z,1020.59
2019-03-24T11:14:00.118Z,1020.55
2019-03-24T11:15:00.399Z,1020.53
2019-03-24T11:16:00.099Z,1020.52
2019-03-24T11:17:00.091Z,1020.55
2019-03-24T11:18:00.074Z,1020.61
2019-03-24T11:19:00.075Z,1020.57
2019-03-24T11:20:00.050Z,1020.54
2019-03-24T11:21:00.042Z,1020.54
2019-03-24T11:22:00.036Z,1020.58
2019-03-24T11:23:00.021Z,1020.57
2019-03-24T11:24:00.002Z,1020.61
2019-03-24T11:24:59.995Z,1020.62
2019-03-24T11:25:59.979Z,1020.63
2019-03-24T11:26:59.973Z,1020.60
2019-03-24T11:27:59.961Z,1020.65
2019-03-24T11:28:59.953Z,1020.64
2019-03-24T11:29:59.933Z,1020.64
2019-03-24T11:30:59.930Z,1020.65
2019-03-24T11:31:59.907Z,1020.64
2019-03-24T11:32:59.898Z,1020.61
2019-03-24T11:33:59.887Z,1020.63
2019-03-24T11:34:59.870Z,1020.63
2019-03-24T11:35:59.863Z,1020.60
2019-03-24T11:36:59.855Z,1020.70
2019-03-24T11:37:59.833Z,1020.64
2019-03-24T11:38:59.830Z,1020.65
2019-03-24T11:39:59.820Z,1020.59
2019-03-24T11:40:59.805Z,1020.59
2019-03-24T11:41:59.788Z,1020.58
2019-03-24T11:42:59.776Z,1020.57
2019-03-24T11:43:59.762Z,1020.52
2019-03-24T11:44:59.751Z,1020.57
2019-03-24T11:45:59.741Z,1020.53
2019-03-24T11:46:59.725Z,1020.50
2019-03-24T11:47:59.717Z,1020.54
2019-03-24T11:48:59.703Z,1020.57
2019-03-24T11:49:59.688Z,1020.52
2019-03-24T11:50:59.678Z,1020.53
2019-03-24T11:51:59.679Z,1020.53
2019-03-24T11:52:59.655Z,1020.51
2019-03-24T11:53:59.649Z,1020.52
2019-03-24T11:54:59.639Z,1020.51
2019-03-24T11:55:59.619Z,1020.47
2019-03-24T11:56:59.605Z,1020.49
2019-03-24T11:58:05.787Z,1020.40
2019-03-24T11:58:59.584Z,1020.45
2019-03-24T11:59:59.579Z,1020.42
2019-03-24T12:00:59.562Z,1020.35
2019-03-24T12:01:59.549Z,1020.31
2019-03-24T12:02:59.542Z,1020.26
2019-03-24T12:03:59.523Z,1020.24
2019-03-24T12:04:59.508Z,1020.23
2019-03-24T12:05:59.501Z,1020.28